createdAt,value
2022-10-17T00:00:38.605Z,72.00
2022-10-17T00:03:05.687Z,72.70
2022-10-17T00:05:32.506Z,72.50
2022-10-17T00:07:59.313Z,72.00
2022-10-17T00:10:26.312Z,71.90
2022-10-17T00:12:53.347Z,71.80
2022-10-17T00:15:22.303Z,71.90
2022-10-17T00:17:49.191Z,72.50
2022-10-17T00:20:16.748Z,72.50
2022-10-17T00:22:43.935Z,71.60
2022-10-17T00:25:11.493Z,70.60
2022-10-17T00:27:39.892Z,71.80
2022-10-17T00:30:10.113Z,71.70
2022-10-17T00:32:37.283Z,72.90
2022-10-17T00:35:04.535Z,71.60
2022-10-17T00:37:32.219Z,72.20
2022-10-17T00:39:59.132Z,71.40
2022-10-17T00:42:27.105Z,72.40
2022-10-17T00:45:15.170Z,73.10
2022-10-17T00:47:43.536Z,72.20
2022-10-17T00:50:11.203Z,73.40
2022-10-17T00:52:38.156Z,74.10
2022-10-17T00:55:12.412Z,73.80
2022-10-17T00:57:39.728Z,74.20
2022-10-17T01:00:09.271Z,75.10
2022-10-17T01:02:36.848Z,74.90
2022-10-17T01:05:04.590Z,75.50
2022-10-17T01:07:34.806Z,75.90
2022-10-17T01:10:05.322Z,75.90
2022-10-17T01:12:41.476Z,75.10
2022-10-17T01:15:24.387Z,75.10
2022-10-17T01:18:06.526Z,75.40
2022-10-17T01:20:55.100Z,76.00
2022-10-17T01:23:48.803Z,76.70
2022-10-17T01:26:30.539Z,77.00
2022-10-17T01:29:03.064Z,77.50
2022-10-17T01:31:40.552Z,77.90
2022-10-17T01:34:25.730Z,78.30
2022-10-17T01:37:01.215Z,77.90
2022-10-17T01:39:47.766Z,78.20
2022-10-17T01:46:24.237Z,78.70
2022-10-17T01:48:51.395Z,77.90
2022-10-17T01:51:25.532Z,77.80
2022-10-17T01:54:01.231Z,78.70
2022-10-17T01:56:30.908Z,79.80
2022-10-17T01:59:01.652Z,78.90
2022-10-17T02:01:30.165Z,79.60
2022-10-17T02:03:58.288Z,80.10
2022-10-17T02:06:25.606Z,79.70
2022-10-17T02:08:52.542Z,79.90
2022-10-17T02:11:24.213Z,79.20
2022-10-17T02:14:24.222Z,79.50
2022-10-17T02:17:14.164Z,79.80
2022-10-17T02:20:03.145Z,79.80
2022-10-17T02:23:12.562Z,80.10
2022-10-17T02:25:49.121Z,80.10
2022-10-17T02:28:18.903Z,80.40
2022-10-17T02:30:54.802Z,80.80
2022-10-17T02:33:27.993Z,80.90
2022-10-17T02:35:58.306Z,80.70
2022-10-17T02:38:25.920Z,80.20
2022-10-17T02:40:54.084Z,80.20
2022-10-17T02:43:22.441Z,80.00
2022-10-17T02:45:49.437Z,79.60
2022-10-17T02:48:25.175Z,80.00
2022-10-17T02:50:58.274Z,80.20
2022-10-17T02:53:39.917Z,81.40
2022-10-17T02:56:14.676Z,80.70
2022-10-17T02:58:43.268Z,80.70
2022-10-17T03:01:10.199Z,80.30
2022-10-17T03:03:36.961Z,80.10
2022-10-17T03:06:03.822Z,80.80
2022-10-17T03:08:30.777Z,81.10
2022-10-17T03:10:57.518Z,81.70
2022-10-17T03:13:24.257Z,82.10
2022-10-17T03:15:51.017Z,81.40
2022-10-17T03:18:17.682Z,81.40
2022-10-17T03:20:44.453Z,81.10
2022-10-17T03:23:11.229Z,80.20
2022-10-17T03:25:38.157Z,80.50
2022-10-17T03:28:05.603Z,81.70
2022-10-17T03:30:32.976Z,82.00
2022-10-17T03:33:00.443Z,81.30
2022-10-17T03:35:27.598Z,81.80
2022-10-17T03:37:55.882Z,80.80
2022-10-17T03:40:22.761Z,81.70
2022-10-17T03:42:49.726Z,82.00
2022-10-17T03:45:16.460Z,81.60
2022-10-17T03:47:43.176Z,81.70
2022-10-17T03:50:10.011Z,81.80
2022-10-17T03:52:37.047Z,82.00
2022-10-17T03:55:04.050Z,82.10
2022-10-17T03:57:31.218Z,82.10
2022-10-17T03:59:58.270Z,81.70
2022-10-17T04:02:25.108Z,81.80
2022-10-17T04:04:51.956Z,82.20
2022-10-17T04:07:18.828Z,81.80
2022-10-17T04:09:45.753Z,82.00
2022-10-17T04:12:12.526Z,81.80
2022-10-17T04:14:39.236Z,81.70
2022-10-17T04:17:06.173Z,81.80
2022-10-17T04:19:33.034Z,81.60
2022-10-17T04:21:59.753Z,81.10
2022-10-17T04:24:26.643Z,81.00
2022-10-17T04:26:54.702Z,81.00
2022-10-17T04:29:21.896Z,81.20
2022-10-17T04:31:49.819Z,81.10
2022-10-17T04:34:17.348Z,81.30
2022-10-17T04:36:44.211Z,80.60
2022-10-17T04:39:11.058Z,80.80
2022-10-17T04:41:37.830Z,80.90
2022-10-17T04:44:04.745Z,81.70
2022-10-17T04:46:34.095Z,81.70
2022-10-17T04:49:00.833Z,83.00
2022-10-17T04:51:27.669Z,82.80
2022-10-17T04:53:55.182Z,83.00
2022-10-17T04:56:24.271Z,83.40
2022-10-17T04:58:51.811Z,83.00
2022-10-17T05:01:22.694Z,83.30
2022-10-17T05:03:49.943Z,83.30
2022-10-17T05:06:24.870Z,84.20
2022-10-17T05:08:51.673Z,83.80
2022-10-17T05:11:21.038Z,84.50
2022-10-17T05:13:54.684Z,84.60
2022-10-17T05:16:21.920Z,84.20
2022-10-17T05:18:53.339Z,84.50
2022-10-17T05:21:21.836Z,85.10
2022-10-17T05:23:48.856Z,85.20
2022-10-17T05:26:16.449Z,85.70
2022-10-17T05:28:43.367Z,85.50
2022-10-17T05:31:11.802Z,85.30
2022-10-17T05:33:39.589Z,85.80
2022-10-17T05:36:07.347Z,85.70
2022-10-17T05:38:34.235Z,86.20
2022-10-17T05:41:02.917Z,85.20
2022-10-17T05:43:30.394Z,85.50
2022-10-17T05:45:57.691Z,86.30
2022-10-17T05:48:25.328Z,86.70
2022-10-17T05:51:02.090Z,86.20
2022-10-17T05:53:33.694Z,85.70
2022-10-17T05:56:02.134Z,86.30
2022-10-17T06:01:16.108Z,87.00
2022-10-17T06:03:42.930Z,87.70
2022-10-17T06:06:12.371Z,87.60
2022-10-17T06:08:39.368Z,87.50
2022-10-17T06:11:09.868Z,87.00
2022-10-17T06:13:37.945Z,87.00
2022-10-17T06:16:05.413Z,87.80
2022-10-17T06:18:32.595Z,87.20
2022-10-17T06:21:07.234Z,87.00
2022-10-17T06:23:34.541Z,86.80
2022-10-17T06:26:02.612Z,86.70
2022-10-17T06:28:29.662Z,85.10
2022-10-17T06:30:57.015Z,85.10
2022-10-17T06:33:23.903Z,84.60
2022-10-17T06:35:54.775Z,84.90
2022-10-17T06:38:22.413Z,84.50
2022-10-17T06:40:51.299Z,87.20
2022-10-17T06:43:18.649Z,85.50
2022-10-17T06:45:48.779Z,86.80
2022-10-17T06:48:15.944Z,86.90
2022-10-17T06:50:42.881Z,87.20
2022-10-17T06:53:09.979Z,86.30
2022-10-17T06:55:36.872Z,86.00
2022-10-17T06:58:03.633Z,86.50
2022-10-17T07:00:30.505Z,86.80
2022-10-17T07:02:57.350Z,86.20
2022-10-17T07:05:24.530Z,85.70
2022-10-17T07:07:52.037Z,86.00
2022-10-17T07:10:19.284Z,88.50
2022-10-17T07:12:46.271Z,86.10
2022-10-17T07:15:13.283Z,85.90
2022-10-17T07:17:40.185Z,85.60
2022-10-17T07:20:07.606Z,87.70
2022-10-17T07:22:35.051Z,86.40
2022-10-17T07:25:01.914Z,87.30
2022-10-17T07:27:29.117Z,87.70
2022-10-17T07:29:56.240Z,87.30
2022-10-17T07:32:22.936Z,88.50
2022-10-17T07:34:49.534Z,86.20
2022-10-17T07:37:16.403Z,84.40
2022-10-17T07:39:43.002Z,83.50
2022-10-17T07:42:10.351Z,83.50
2022-10-17T07:44:37.106Z,84.30
2022-10-17T07:47:04.292Z,81.30
2022-10-17T07:49:31.259Z,81.40
2022-10-17T07:51:57.852Z,80.90
2022-10-17T07:54:24.552Z,80.00
2022-10-17T07:56:53.125Z,79.20
2022-10-17T07:59:20.486Z,78.70
2022-10-17T08:01:47.274Z,79.60
2022-10-17T08:04:13.925Z,81.20
2022-10-17T08:06:40.518Z,82.20
2022-10-17T08:09:07.136Z,85.00
2022-10-17T08:11:35.911Z,85.40
2022-10-17T08:14:02.545Z,87.20
2022-10-17T08:16:29.146Z,89.70
2022-10-17T08:18:55.738Z,90.50
2022-10-17T08:21:22.416Z,91.30
2022-10-17T08:23:49.341Z,92.40
2022-10-17T08:26:17.223Z,92.10
2022-10-17T08:28:44.365Z,93.30
2022-10-17T08:31:13.804Z,95.00
2022-10-17T08:33:41.494Z,94.80
2022-10-17T08:36:09.357Z,94.40
2022-10-17T08:38:38.474Z,94.00
2022-10-17T08:41:34.747Z,95.40
2022-10-17T08:44:43.097Z,93.40
2022-10-17T08:47:13.503Z,94.40
2022-10-17T08:49:52.224Z,94.90
2022-10-17T08:52:39.555Z,95.00
2022-10-17T08:55:23.123Z,94.90
2022-10-17T08:57:49.839Z,94.40
2022-10-17T09:00:21.002Z,94.30
2022-10-17T09:03:48.518Z,94.50
2022-10-17T09:06:35.501Z,94.00
2022-10-17T09:09:10.499Z,94.40
2022-10-17T09:11:43.385Z,93.50
2022-10-17T09:14:21.787Z,93.40
2022-10-17T09:17:06.966Z,93.30
2022-10-17T09:19:52.809Z,93.20
2022-10-17T09:22:22.906Z,92.50
2022-10-17T09:24:55.623Z,92.70
2022-10-17T09:27:39.214Z,93.70
2022-10-17T09:30:46.488Z,93.40
2022-10-17T09:33:34.880Z,91.30
2022-10-17T09:36:14.389Z,92.00
2022-10-17T09:38:43.420Z,91.10
2022-10-17T09:41:43.151Z,91.20
2022-10-17T09:44:32.971Z,91.30
2022-10-17T09:47:23.429Z,91.00
2022-10-17T09:49:50.681Z,89.40
2022-10-17T09:52:22.593Z,90.20
2022-10-17T09:54:51.735Z,90.40
2022-10-17T09:57:19.923Z,90.00
2022-10-17T09:59:55.653Z,90.40
2022-10-17T10:02:24.882Z,90.20
2022-10-17T10:05:06.449Z,90.90
2022-10-17T10:07:37.245Z,91.70
2022-10-17T10:10:06.731Z,90.10
2022-10-17T10:12:36.905Z,90.50
2022-10-17T10:15:41.102Z,89.20
2022-10-17T10:18:26.604Z,89.40
2022-10-17T10:21:16.483Z,88.40
2022-10-17T10:23:45.183Z,88.10
2022-10-17T10:26:20.269Z,91.50
2022-10-17T10:29:20.741Z,90.30
2022-10-17T10:31:51.236Z,90.40
2022-10-17T10:34:35.589Z,91.10
2022-10-17T10:37:17.034Z,91.90
2022-10-17T10:39:54.297Z,89.50
2022-10-17T10:45:53.676Z,92.20
2022-10-17T10:48:23.189Z,90.60
2022-10-17T10:50:51.045Z,87.00
2022-10-17T10:53:35.538Z,90.00
2022-10-17T10:56:19.507Z,86.20
2022-10-17T10:59:03.397Z,84.30
2022-10-17T11:01:41.662Z,85.20
2022-10-17T11:04:32.514Z,84.90
2022-10-17T11:07:04.725Z,84.80
2022-10-17T11:09:34.089Z,89.70
2022-10-17T11:12:23.626Z,84.80
2022-10-17T11:15:13.217Z,78.40
2022-10-17T11:17:57.555Z,83.50
2022-10-17T11:20:40.593Z,79.70
2022-10-17T11:23:21.534Z,81.90
2022-10-17T11:25:52.800Z,78.80
2022-10-17T11:28:21.272Z,87.40
2022-10-17T11:30:50.889Z,78.00
2022-10-17T11:34:06.498Z,78.90
2022-10-17T11:36:36.360Z,74.90
2022-10-17T11:39:11.919Z,78.90
2022-10-17T11:42:21.982Z,71.50
2022-10-17T11:49:04.217Z,74.80
2022-10-17T11:52:55.567Z,74.40
2022-10-17T11:59:29.949Z,81.00
2022-10-17T12:03:08.054Z,73.10
2022-10-17T12:06:08.550Z,69.80
2022-10-17T12:16:17.429Z,58.80
2022-10-17T12:19:21.596Z,53.20
2022-10-17T12:22:18.517Z,44.10
2022-10-17T12:24:59.979Z,55.60
2022-10-17T12:28:25.460Z,36.70
2022-10-17T12:31:38.755Z,41.60
2022-10-17T12:34:05.965Z,39.60
2022-10-17T12:36:41.334Z,38.80
2022-10-17T12:39:22.792Z,36.70
2022-10-17T12:41:54.836Z,44.90
2022-10-17T12:44:43.526Z,44.00
2022-10-17T12:47:43.935Z,40.40
2022-10-17T12:51:34.852Z,49.50
2022-10-17T12:54:00.770Z,42.30
2022-10-17T12:56:49.176Z,28.40
2022-10-17T13:02:37.362Z,41.10
2022-10-17T13:05:26.556Z,35.60
2022-10-17T13:07:53.665Z,34.10
2022-10-17T13:10:23.185Z,26.90
2022-10-17T13:12:51.204Z,29.10
2022-10-17T13:15:19.709Z,25.50
2022-10-17T13:17:54.770Z,23.00
2022-10-17T13:20:28.878Z,17.30
2022-10-17T13:22:58.807Z,6.10
2022-10-17T13:25:28.030Z,11.50
2022-10-17T13:28:05.958Z,4.10
2022-10-17T13:30:35.455Z,12.10
2022-10-17T13:33:03.430Z,13.80
2022-10-17T13:35:59.059Z,1.00
2022-10-17T13:38:28.727Z,5.70
2022-10-17T13:41:02.030Z,1.00
2022-10-17T13:43:33.265Z,3.10
2022-10-17T13:46:25.422Z,1.00
2022-10-17T13:48:52.749Z,1.00
2022-10-17T13:51:19.816Z,1.00
2022-10-17T13:53:46.514Z,1.00
2022-10-17T13:56:29.886Z,1.00
2022-10-17T13:59:00.506Z,1.00
2022-10-17T14:01:28.895Z,1.00
2022-10-17T14:04:07.913Z,1.00
2022-10-17T14:06:46.321Z,1.00
2022-10-17T14:09:26.119Z,1.00
2022-10-17T14:12:16.601Z,1.00
2022-10-17T14:15:09.890Z,1.00
2022-10-17T14:17:38.576Z,1.00
2022-10-17T14:20:40.755Z,1.00
2022-10-17T14:23:17.906Z,1.00
2022-10-17T14:25:49.558Z,1.00
2022-10-17T14:28:16.978Z,1.00
2022-10-17T14:31:01.162Z,1.00
2022-10-17T14:33:30.625Z,1.00
2022-10-17T14:36:01.684Z,1.00
2022-10-17T14:38:29.770Z,1.00
2022-10-17T14:41:41.900Z,1.00
2022-10-17T14:44:26.772Z,1.00
2022-10-17T14:47:05.932Z,1.00
2022-10-17T14:49:41.098Z,1.00
2022-10-17T14:52:17.972Z,1.00
2022-10-17T14:54:47.571Z,1.00
2022-10-17T14:57:20.032Z,1.00
2022-10-17T14:59:55.417Z,1.00
2022-10-17T15:02:27.792Z,1.00
2022-10-17T15:04:55.958Z,1.00
2022-10-17T15:07:23.725Z,1.00
2022-10-17T15:09:51.904Z,1.00
2022-10-17T15:12:21.219Z,1.00
2022-10-17T15:14:48.557Z,1.00
2022-10-17T15:20:16.709Z,1.00
2022-10-17T15:22:43.486Z,1.00
2022-10-17T15:25:10.255Z,1.00
2022-10-17T15:27:37.028Z,1.00
2022-10-17T15:30:04.763Z,1.00
2022-10-17T15:32:31.513Z,1.00
2022-10-17T15:34:58.298Z,1.00
2022-10-17T15:37:25.779Z,1.00
2022-10-17T15:39:54.522Z,1.00
2022-10-17T15:42:22.964Z,1.00
2022-10-17T15:44:50.268Z,1.00
2022-10-17T15:47:28.479Z,1.00
2022-10-17T15:49:55.794Z,1.00
2022-10-17T15:52:23.550Z,1.00
2022-10-17T15:54:50.588Z,1.00
2022-10-17T15:57:21.288Z,1.00
2022-10-17T15:59:48.325Z,1.00
2022-10-17T16:02:16.302Z,1.00
2022-10-17T16:04:44.964Z,1.00
2022-10-17T16:07:11.771Z,1.00
2022-10-17T16:09:38.860Z,1.00
2022-10-17T16:12:07.079Z,1.00
2022-10-17T16:14:34.067Z,1.00
2022-10-17T16:17:01.323Z,1.00
2022-10-17T16:19:30.096Z,1.00
2022-10-17T16:21:59.623Z,1.00
2022-10-17T16:24:28.880Z,1.00
2022-10-17T16:26:55.682Z,1.00
2022-10-17T16:29:22.425Z,1.00
2022-10-17T16:31:51.385Z,1.00
2022-10-17T16:34:18.068Z,1.00
2022-10-17T16:36:44.922Z,1.00
2022-10-17T16:39:11.671Z,1.00
2022-10-17T16:41:39.493Z,1.00
2022-10-17T16:44:08.191Z,1.00
2022-10-17T16:46:36.991Z,1.00
2022-10-17T16:49:05.416Z,1.00
2022-10-17T16:51:33.770Z,1.00
2022-10-17T16:54:00.658Z,1.60
2022-10-17T16:56:32.615Z,1.00
2022-10-17T16:59:00.489Z,2.90
2022-10-17T17:01:29.460Z,3.70
2022-10-17T17:03:56.814Z,4.30
2022-10-17T17:06:26.705Z,5.40
2022-10-17T17:08:54.440Z,5.40
2022-10-17T17:11:23.471Z,6.60
2022-10-17T17:13:50.552Z,7.40
2022-10-17T17:16:22.949Z,8.40
2022-10-17T17:19:00.769Z,9.10
2022-10-17T17:21:27.901Z,10.00
2022-10-17T17:23:58.965Z,9.80
2022-10-17T17:26:27.294Z,11.50
2022-10-17T17:28:54.266Z,11.70
2022-10-17T17:31:23.336Z,13.90
2022-10-17T17:33:51.122Z,13.10
2022-10-17T17:36:24.219Z,12.40
2022-10-17T17:38:51.863Z,13.40
2022-10-17T17:41:20.101Z,13.80
2022-10-17T17:43:48.028Z,13.60
2022-10-17T17:46:16.898Z,14.50
2022-10-17T17:48:45.447Z,12.90
2022-10-17T17:51:13.973Z,13.00
2022-10-17T17:53:41.124Z,14.10
2022-10-17T17:56:17.874Z,13.80
2022-10-17T17:58:46.106Z,14.60
2022-10-17T18:01:21.206Z,14.80
2022-10-17T18:03:52.375Z,17.00
2022-10-17T18:06:20.279Z,16.90
2022-10-17T18:08:49.345Z,17.40
2022-10-17T18:11:18.412Z,17.40
2022-10-17T18:13:48.134Z,19.70
2022-10-17T18:16:16.811Z,19.20
2022-10-17T18:18:45.013Z,19.10
2022-10-17T18:21:13.231Z,20.60
2022-10-17T18:23:41.129Z,19.80
2022-10-17T18:26:08.347Z,21.20
2022-10-17T18:28:39.603Z,21.40
2022-10-17T18:31:08.278Z,22.00
2022-10-17T18:33:35.441Z,22.60
2022-10-17T18:36:07.004Z,23.00
2022-10-17T18:38:34.244Z,23.60
2022-10-17T18:41:27.441Z,23.70
2022-10-17T18:43:55.328Z,24.70
2022-10-17T18:46:28.460Z,26.60
2022-10-17T18:48:56.733Z,26.10
2022-10-17T18:51:24.851Z,25.70
2022-10-17T18:53:53.854Z,25.60
2022-10-17T18:56:21.473Z,26.50
2022-10-17T18:58:48.526Z,27.70
2022-10-17T19:01:23.633Z,28.00
2022-10-17T19:03:51.626Z,28.80
2022-10-17T19:06:20.386Z,29.20
2022-10-17T19:08:47.918Z,29.60
2022-10-17T19:11:18.798Z,29.10
2022-10-17T19:16:27.250Z,29.50
2022-10-17T19:18:59.989Z,30.60
2022-10-17T19:21:27.037Z,30.40
2022-10-17T19:24:04.386Z,30.00
2022-10-17T19:26:33.147Z,31.10
2022-10-17T19:29:00.693Z,30.00
2022-10-17T19:33:56.417Z,30.70
2022-10-17T19:36:27.600Z,30.50
2022-10-17T19:38:58.138Z,31.90
2022-10-17T19:41:25.264Z,31.30
2022-10-17T19:43:51.977Z,30.10
2022-10-17T19:46:21.081Z,30.20
2022-10-17T19:48:48.835Z,30.80
2022-10-17T19:51:17.204Z,31.70
2022-10-17T19:53:44.534Z,32.40
2022-10-17T19:56:11.624Z,33.20
2022-10-17T19:58:45.237Z,32.90
2022-10-17T20:01:14.488Z,33.50
2022-10-17T20:03:41.810Z,34.50
2022-10-17T20:06:08.978Z,33.90
2022-10-17T20:08:36.745Z,36.40
2022-10-17T20:11:11.169Z,38.70
2022-10-17T20:13:38.574Z,40.60
2022-10-17T20:16:06.306Z,41.30
2022-10-17T20:18:33.350Z,41.70
2022-10-17T20:21:08.799Z,41.80
2022-10-17T20:23:36.773Z,42.50
2022-10-17T20:26:25.506Z,43.80
2022-10-17T20:28:52.969Z,43.00
2022-10-17T20:31:20.380Z,44.60
2022-10-17T20:33:51.873Z,44.70
2022-10-17T20:36:23.170Z,45.20
2022-10-17T20:38:56.344Z,44.60
2022-10-17T20:41:23.443Z,45.90
2022-10-17T20:43:51.540Z,46.20
2022-10-17T20:46:34.959Z,46.50
2022-10-17T20:49:03.253Z,47.00
2022-10-17T20:51:29.938Z,47.00
2022-10-17T20:56:30.403Z,48.40
2022-10-17T20:58:59.086Z,47.90
2022-10-17T21:01:26.752Z,48.50
2022-10-17T21:03:53.587Z,48.70
2022-10-17T21:06:20.694Z,47.90
2022-10-17T21:08:47.605Z,47.30
2022-10-17T21:11:17.494Z,47.70
2022-10-17T21:13:44.564Z,47.50
2022-10-17T21:16:14.190Z,48.10
2022-10-17T21:18:41.378Z,48.10
2022-10-17T21:21:10.440Z,48.20
2022-10-17T21:23:37.745Z,47.30
2022-10-17T21:26:05.932Z,48.80
2022-10-17T21:28:33.350Z,48.10
2022-10-17T21:31:21.350Z,49.30
2022-10-17T21:33:59.456Z,48.70
2022-10-17T21:36:27.404Z,49.20
2022-10-17T21:38:55.837Z,48.70
2022-10-17T21:41:25.025Z,50.00
2022-10-17T21:43:56.730Z,49.80
2022-10-17T21:46:23.749Z,48.80
2022-10-17T21:48:51.817Z,48.70
2022-10-17T21:51:21.815Z,48.00
2022-10-17T21:53:49.507Z,49.00
2022-10-17T21:56:20.821Z,50.50
2022-10-17T21:58:48.235Z,50.40
2022-10-17T22:01:20.360Z,49.90
2022-10-17T22:03:49.295Z,50.70
2022-10-17T22:06:38.828Z,51.30
2022-10-17T22:09:07.033Z,52.30
2022-10-17T22:11:35.093Z,52.30
2022-10-17T22:14:06.696Z,52.80
2022-10-17T22:16:33.916Z,53.10
2022-10-17T22:19:05.898Z,54.50
2022-10-17T22:21:34.513Z,54.20
2022-10-17T22:24:03.789Z,54.50
2022-10-17T22:26:32.148Z,55.20
2022-10-17T22:28:58.944Z,55.80
2022-10-17T22:31:26.163Z,55.50
2022-10-17T22:33:52.843Z,56.00
2022-10-17T22:36:19.508Z,56.30
2022-10-17T22:38:46.143Z,55.80
2022-10-17T22:41:12.751Z,55.80
2022-10-17T22:43:39.422Z,55.50
2022-10-17T22:46:07.285Z,55.40
2022-10-17T22:48:34.222Z,56.10
2022-10-17T22:51:01.029Z,56.10
2022-10-17T22:53:29.304Z,55.80
2022-10-17T22:55:58.757Z,55.40
2022-10-17T22:58:26.542Z,56.30
2022-10-17T23:00:53.982Z,56.80
2022-10-17T23:03:21.322Z,57.40
2022-10-17T23:05:49.741Z,57.60
2022-10-17T23:08:18.112Z,58.10
2022-10-17T23:10:45.811Z,58.50
2022-10-17T23:13:12.674Z,58.40
2022-10-17T23:15:39.686Z,57.80
2022-10-17T23:18:06.969Z,57.90
2022-10-17T23:20:36.502Z,59.20
2022-10-17T23:23:03.345Z,59.40
2022-10-17T23:25:29.933Z,58.80
2022-10-17T23:27:56.582Z,59.20
2022-10-17T23:30:25.719Z,58.80
2022-10-17T23:32:53.478Z,59.00
2022-10-17T23:35:20.087Z,58.30
2022-10-17T23:37:46.711Z,58.80
2022-10-17T23:40:13.442Z,59.80
2022-10-17T23:42:42.837Z,61.00
2022-10-17T23:45:09.944Z,59.60
2022-10-17T23:47:36.572Z,59.40
2022-10-17T23:50:04.203Z,59.70
2022-10-17T23:52:30.839Z,59.50
2022-10-17T23:54:57.482Z,60.30
2022-10-17T23:57:24.110Z,60.20
2022-10-17T23:59:50.770Z,61.40
